LRBO - airport unknown

Compiled: 18:00:54 on 20/10/2018

Latest METAR/SPECI Reports

METAR LRBO 201700Z 02008KT 6000 OVC100 15/08 Q1019 WHT WHT=

Previous reports

METAR LRBO 201600Z 02010KT 5000 BR BKN100 17/09 Q1019 WHT WHT=
METAR LRBO 201500Z 02013KT 7000 SCT050 BKN100 19/09 Q1018 WHT WHT=
METAR LRBO 201400Z 01013KT 7000 SCT050 BKN100 21/09 Q1018 WHT WHT=
METAR LRBO 201300Z 02013KT 7000 SCT050 BKN100 21/09 Q1018 WHT WHT=

Latest TAF report

TAF LRBO 201700Z 2018/2118 01008KT 6000 OVC100 PROB40 TEMPO 2103/2106 5000 BR SCT010 BKN080=

Valid WARNINGS

No valid warnings for LRBO